Ana Sayfa
METAR-TAF:

METAR-TAF

Havaalanları :

Provincetown Municipal Airport

Provincetown, Massachusetts, Amerika Birleşik Devletleri

Enlem: 42-04N, Boylam: 070-13W, yükseklik: 2 m

Güncel hava durumu gözlemi

Rapor saat 10:56 UTC de 48 dakika önce yapıldı.
Rüzgar kuzey/kuzeybatıdan 14 kt ve 20 kt'a kadar ani rüzgarlar
Sıcaklık 1°C
Nem 59%
Basınç 1013 hPa
Görüş mesafesi: 16.1 km
3300 ft yükseklikte parçalı çok bulutlu
4100 ft yükseklikte çok bulutlu

METAR: KPVC 291056Z AUTO 33014G20KT 10SM BKN033 OVC041 01/M06 A2992 RMK AO2 SLP130 T00061056 FZRANO PNO $

Saat: 06:44 (11:44 UTC)


TAF: eksik

4.000'den fazla havaalanı için hava durumu gözlemleri ve tahminleri (METAR ve TAF raporları).

Kullanılabilir istasyonlar harita üzerinde sarı ve kırmızı noktalarla gösterilir.

İstasyonun adını görmek için fareyi noktanın üzerinde gezdirin.

Sonrasında hava gözlem ve tahminlerini görmek için tıklayın.

Haritayı değiştirmek için: yaklaştırmak için siyah artı işaretli yeşil düğmeye ve uzaklaştırmak için de eksi işaretli düğmeye hızla tıklayın; bitişik haritalar için yeşil okları kullanın.


METAR-TAF: